createdAt,value
2019-02-28T00:01:05.651Z,15.67
2019-02-28T00:03:35.347Z,18.10
2019-02-28T00:06:04.847Z,17.93
2019-02-28T00:08:34.442Z,16.37
2019-02-28T00:11:05.034Z,16.20
2019-02-28T00:13:35.688Z,17.17
2019-02-28T00:16:06.153Z,16.37
2019-02-28T00:18:35.481Z,16.80
2019-02-28T00:21:06.981Z,14.87
2019-02-28T00:23:36.406Z,18.40
2019-02-28T00:26:06.099Z,18.80
2019-02-28T00:28:35.700Z,16.80
2019-02-28T00:31:05.020Z,17.00
2019-02-28T00:33:34.615Z,17.40
2019-02-28T00:36:04.542Z,17.03
2019-02-28T00:38:34.130Z,17.90
2019-02-28T00:41:03.609Z,16.07
2019-02-28T00:43:33.019Z,16.37
2019-02-28T00:46:02.636Z,17.17
2019-02-28T00:48:32.040Z,17.73
2019-02-28T00:51:01.544Z,17.47
2019-02-28T00:53:30.868Z,18.47
2019-02-28T00:56:00.552Z,15.97
2019-02-28T00:58:29.893Z,17.17
2019-02-28T01:00:59.284Z,19.10
2019-02-28T01:03:28.962Z,18.33
2019-02-28T01:05:58.298Z,18.57
2019-02-28T01:08:27.644Z,17.00
2019-02-28T01:11:05.450Z,18.37
2019-02-28T01:13:35.182Z,17.63
2019-02-28T01:16:05.989Z,18.30
2019-02-28T01:18:35.652Z,18.57
2019-02-28T01:21:04.986Z,17.93
2019-02-28T01:23:34.337Z,16.10
2019-02-28T01:26:03.667Z,15.77
2019-02-28T01:28:32.999Z,17.87
2019-02-28T01:31:02.331Z,19.73
2019-02-28T01:33:31.770Z,17.27
2019-02-28T01:36:01.476Z,20.00
2019-02-28T01:38:31.392Z,15.97
2019-02-28T01:41:01.054Z,19.30
2019-02-28T01:43:30.372Z,17.93
2019-02-28T01:46:00.062Z,16.87
2019-02-28T01:48:29.813Z,15.60
2019-02-28T01:51:00.879Z,18.57
2019-02-28T01:53:30.971Z,18.37
2019-02-28T01:56:02.579Z,16.80
2019-02-28T01:58:31.861Z,19.00
2019-02-28T02:01:01.238Z,18.77
2019-02-28T02:03:30.887Z,21.63
2019-02-28T02:06:00.506Z,18.53
2019-02-28T02:08:29.855Z,19.47
2019-02-28T02:10:59.182Z,19.90
2019-02-28T02:13:28.802Z,17.73
2019-02-28T02:15:58.506Z,20.93
2019-02-28T02:18:28.172Z,22.23
2019-02-28T02:21:00.147Z,23.10
2019-02-28T02:23:28.869Z,23.00
2019-02-28T02:25:58.193Z,27.50
2019-02-28T02:28:27.907Z,30.03
2019-02-28T02:30:57.481Z,28.83
2019-02-28T02:33:26.781Z,31.93
2019-02-28T02:35:56.486Z,31.07
2019-02-28T02:38:25.800Z,33.73
2019-02-28T02:40:58.968Z,29.87
2019-02-28T02:43:26.185Z,32.93
2019-02-28T02:45:55.857Z,27.63
2019-02-28T02:48:25.160Z,26.73
2019-02-28T02:50:54.498Z,24.70
2019-02-28T02:53:23.842Z,22.13
2019-02-28T02:55:53.189Z,20.90
2019-02-28T02:58:26.877Z,21.23
2019-02-28T03:00:53.601Z,21.23
2019-02-28T03:03:23.275Z,22.23
2019-02-28T03:05:52.628Z,21.40
2019-02-28T03:08:21.965Z,18.83
2019-02-28T03:10:53.022Z,19.40
2019-02-28T03:13:22.963Z,18.97
2019-02-28T03:15:52.305Z,18.70
2019-02-28T03:18:21.897Z,19.77
2019-02-28T03:20:51.278Z,19.17
2019-02-28T03:23:20.630Z,19.30
2019-02-28T03:25:51.374Z,18.87
2019-02-28T03:28:21.010Z,20.23
2019-02-28T03:30:50.338Z,18.67
2019-02-28T03:33:27.314Z,18.07
2019-02-28T03:35:51.034Z,18.20
2019-02-28T03:38:20.359Z,18.07
2019-02-28T03:40:50.034Z,20.97
2019-02-28T03:43:21.007Z,19.13
2019-02-28T03:45:50.339Z,17.90
2019-02-28T03:48:19.799Z,18.07
2019-02-28T03:50:49.492Z,16.83
2019-02-28T03:53:20.012Z,18.87
2019-02-28T03:55:50.250Z,20.60
2019-02-28T03:58:19.582Z,17.87
2019-02-28T04:00:49.246Z,19.73
2019-02-28T04:03:18.584Z,15.83
2019-02-28T04:05:47.941Z,17.00
2019-02-28T04:08:17.552Z,17.33
2019-02-28T04:10:46.916Z,18.40
2019-02-28T04:13:19.267Z,19.23
2019-02-28T04:16:07.739Z,18.77
2019-02-28T04:18:18.546Z,17.83
2019-02-28T04:20:47.862Z,19.03
2019-02-28T04:23:17.196Z,20.10
2019-02-28T04:25:46.531Z,20.40
2019-02-28T04:28:18.638Z,19.93
2019-02-28T04:30:46.912Z,16.90
2019-02-28T04:33:16.583Z,18.70
2019-02-28T04:35:46.307Z,18.90
2019-02-28T04:38:20.455Z,18.80
2019-02-28T04:40:46.705Z,18.40
2019-02-28T04:43:16.344Z,19.57
2019-02-28T04:45:46.971Z,18.53
2019-02-28T04:48:16.281Z,18.87
2019-02-28T04:50:45.645Z,19.33
2019-02-28T04:53:14.986Z,19.90
2019-02-28T04:55:44.358Z,20.00
2019-02-28T04:58:13.997Z,18.30
2019-02-28T05:00:43.714Z,19.13
2019-02-28T05:03:13.055Z,17.30
2019-02-28T05:05:46.491Z,21.37
2019-02-28T05:08:13.752Z,19.80
2019-02-28T05:10:43.106Z,20.60
2019-02-28T05:13:14.286Z,20.70
2019-02-28T05:15:43.577Z,20.13
2019-02-28T05:18:12.948Z,18.67
2019-02-28T05:20:45.914Z,17.20
2019-02-28T05:23:13.737Z,20.57
2019-02-28T05:25:43.172Z,16.73
2019-02-28T05:28:12.578Z,17.40
2019-02-28T05:30:41.894Z,20.20
2019-02-28T05:33:11.559Z,15.50
2019-02-28T05:35:40.899Z,16.00
2019-02-28T05:38:10.292Z,14.77
2019-02-28T05:40:41.305Z,15.73
2019-02-28T05:43:11.423Z,13.73
2019-02-28T05:45:41.112Z,16.93
2019-02-28T05:48:10.440Z,14.40
2019-02-28T05:50:40.130Z,14.17
2019-02-28T05:53:10.061Z,14.60
2019-02-28T05:55:39.849Z,15.83
2019-02-28T05:58:09.555Z,14.90
2019-02-28T06:00:38.915Z,14.40
2019-02-28T06:03:08.240Z,13.87
2019-02-28T06:05:38.966Z,14.87
2019-02-28T06:08:08.505Z,14.70
2019-02-28T06:10:37.901Z,14.17
2019-02-28T06:13:07.251Z,14.60
2019-02-28T06:15:37.143Z,13.20
2019-02-28T06:18:07.200Z,12.70
2019-02-28T06:20:36.517Z,13.40
2019-02-28T06:23:06.329Z,13.03
2019-02-28T06:25:37.265Z,16.73
2019-02-28T06:28:06.596Z,12.97
2019-02-28T06:30:35.908Z,13.27
2019-02-28T06:33:05.583Z,13.73
2019-02-28T06:35:35.181Z,14.43
2019-02-28T06:38:06.748Z,14.07
2019-02-28T06:40:35.836Z,17.13
2019-02-28T06:43:05.545Z,15.87
2019-02-28T06:45:37.571Z,15.27
2019-02-28T06:48:05.905Z,14.63
2019-02-28T06:50:35.508Z,15.23
2019-02-28T06:53:05.119Z,16.87
2019-02-28T06:55:34.437Z,15.77
2019-02-28T06:58:04.036Z,15.30
2019-02-28T07:00:33.369Z,17.10
2019-02-28T07:03:04.378Z,13.80
2019-02-28T07:05:34.080Z,17.27
2019-02-28T07:08:03.470Z,14.43
2019-02-28T07:10:32.848Z,15.37
2019-02-28T07:13:04.521Z,17.27
2019-02-28T07:15:33.238Z,16.97
2019-02-28T07:18:02.560Z,17.60
2019-02-28T07:20:35.051Z,19.53
2019-02-28T07:23:03.162Z,19.07
2019-02-28T07:25:33.121Z,21.47
2019-02-28T07:28:02.725Z,20.57
2019-02-28T07:30:32.027Z,18.40
2019-02-28T07:33:01.372Z,19.40
2019-02-28T07:35:34.219Z,20.77
2019-02-28T07:38:03.335Z,22.53
2019-02-28T07:40:33.410Z,22.20
2019-02-28T07:43:02.749Z,20.50
2019-02-28T07:45:33.144Z,21.73
2019-02-28T07:48:03.384Z,22.40
2019-02-28T07:50:32.732Z,24.97
2019-02-28T07:53:02.048Z,24.40
2019-02-28T07:55:31.696Z,27.57
2019-02-28T07:58:01.050Z,27.07
2019-02-28T08:00:30.403Z,27.97
2019-02-28T08:02:59.764Z,27.63
2019-02-28T08:05:31.014Z,28.70
2019-02-28T08:08:00.426Z,29.50
2019-02-28T08:10:32.466Z,30.03
2019-02-28T08:13:03.049Z,33.47
2019-02-28T08:15:33.555Z,32.53
2019-02-28T08:18:02.902Z,38.53
2019-02-28T08:20:34.041Z,34.20
2019-02-28T08:23:03.602Z,31.97
2019-02-28T08:25:33.233Z,35.53
2019-02-28T08:28:02.633Z,35.73
2019-02-28T08:30:35.892Z,34.87
2019-02-28T08:33:05.213Z,35.97
2019-02-28T08:35:35.886Z,34.30
2019-02-28T08:38:06.850Z,37.73
2019-02-28T08:40:36.364Z,36.80
2019-02-28T08:43:05.701Z,36.53
2019-02-28T08:45:35.126Z,37.83
2019-02-28T08:48:04.717Z,37.60
2019-02-28T08:50:34.339Z,34.23
2019-02-28T08:53:05.971Z,35.30
2019-02-28T08:55:38.393Z,36.17
2019-02-28T08:58:06.874Z,38.10
2019-02-28T09:00:37.689Z,35.97
2019-02-28T09:03:07.434Z,37.63
2019-02-28T09:05:37.049Z,36.70
2019-02-28T09:08:06.388Z,36.57
2019-02-28T09:10:37.438Z,38.37
2019-02-28T09:13:08.725Z,40.63
2019-02-28T09:15:38.314Z,37.33
2019-02-28T09:18:07.911Z,40.23
2019-02-28T09:20:37.259Z,38.13
2019-02-28T09:23:06.605Z,36.93
2019-02-28T09:25:35.921Z,35.87
2019-02-28T09:28:05.552Z,40.37
2019-02-28T09:30:51.315Z,39.97
2019-02-28T09:33:23.187Z,40.00
2019-02-28T09:35:51.978Z,38.70
2019-02-28T09:38:21.549Z,40.33
2019-02-28T09:40:50.897Z,40.03
2019-02-28T09:43:23.902Z,38.93
2019-02-28T09:45:52.408Z,38.63
2019-02-28T09:48:21.749Z,36.70
2019-02-28T09:50:58.001Z,37.83
2019-02-28T09:53:22.722Z,36.20
2019-02-28T09:55:52.161Z,36.67
2019-02-28T09:58:21.460Z,38.47
2019-02-28T10:00:50.796Z,38.40
2019-02-28T10:03:20.279Z,36.67
2019-02-28T10:05:49.616Z,38.40
2019-02-28T10:08:18.966Z,34.00
2019-02-28T10:10:48.300Z,36.17
2019-02-28T10:13:18.468Z,37.67
2019-02-28T10:15:48.181Z,33.40
2019-02-28T10:18:17.785Z,35.83
2019-02-28T10:20:47.132Z,34.23
2019-02-28T10:23:18.362Z,34.27
2019-02-28T10:25:47.779Z,37.13
2019-02-28T10:28:17.092Z,36.73
2019-02-28T10:30:47.205Z,37.00
2019-02-28T10:33:18.130Z,38.83
2019-02-28T10:35:47.577Z,38.90
2019-02-28T10:38:17.223Z,40.20
2019-02-28T10:40:49.354Z,40.37
2019-02-28T10:43:17.953Z,42.33
2019-02-28T10:45:47.273Z,42.13
2019-02-28T10:48:16.948Z,43.10
2019-02-28T10:50:46.561Z,41.60
2019-02-28T10:53:16.297Z,37.93
2019-02-28T10:55:45.671Z,36.20
2019-02-28T10:58:15.622Z,38.97
2019-02-28T11:00:46.933Z,39.13
2019-02-28T11:03:16.247Z,39.97
2019-02-28T11:05:46.298Z,40.87
2019-02-28T11:08:18.991Z,35.43
2019-02-28T11:10:47.958Z,35.73
2019-02-28T11:13:20.440Z,36.97
2019-02-28T11:15:50.299Z,42.40
2019-02-28T11:18:19.928Z,37.80
2019-02-28T11:20:49.577Z,39.37
2019-02-28T11:23:19.351Z,41.57
2019-02-28T11:25:48.732Z,41.63
2019-02-28T11:28:18.565Z,38.07
2019-02-28T11:30:47.908Z,38.17
2019-02-28T11:33:18.663Z,36.83
2019-02-28T11:35:48.295Z,38.03
2019-02-28T11:38:21.511Z,39.83
2019-02-28T11:40:57.133Z,42.93
2019-02-28T11:43:20.351Z,38.90
2019-02-28T11:45:49.999Z,37.63
2019-02-28T11:48:26.708Z,35.03
2019-02-28T11:50:56.287Z,38.03
2019-02-28T11:53:25.631Z,40.53
2019-02-28T11:55:54.973Z,33.87
2019-02-28T11:58:24.670Z,37.80
2019-02-28T12:00:54.324Z,35.43
2019-02-28T12:03:23.856Z,37.47
2019-02-28T12:05:53.231Z,33.00
2019-02-28T12:08:22.728Z,38.97
2019-02-28T12:10:52.200Z,38.20
2019-02-28T12:13:21.659Z,37.00
2019-02-28T12:15:51.793Z,39.00
2019-02-28T12:18:21.231Z,36.97
2019-02-28T12:20:51.100Z,38.37
2019-02-28T12:23:23.482Z,34.97
2019-02-28T12:25:52.362Z,42.73
2019-02-28T12:28:22.439Z,40.73
2019-02-28T12:30:52.288Z,37.53
2019-02-28T12:33:23.391Z,39.13
2019-02-28T12:35:54.776Z,39.20
2019-02-28T12:38:25.968Z,38.77
2019-02-28T12:40:56.109Z,41.10
2019-02-28T12:43:25.544Z,37.67
2019-02-28T12:45:56.878Z,38.57
2019-02-28T12:48:27.117Z,40.60
2019-02-28T12:50:57.183Z,39.47
2019-02-28T12:53:26.574Z,39.23
2019-02-28T12:55:55.970Z,39.40
2019-02-28T12:58:25.783Z,40.33
2019-02-28T13:00:56.460Z,39.40
2019-02-28T13:03:27.417Z,41.23
2019-02-28T13:05:56.938Z,41.60
2019-02-28T13:08:26.820Z,41.27
2019-02-28T13:11:02.971Z,41.90
2019-02-28T13:14:09.710Z,41.47
2019-02-28T13:20:22.649Z,44.00
2019-02-28T13:22:55.616Z,42.83
2019-02-28T13:25:24.754Z,44.10
2019-02-28T13:27:54.645Z,44.90
2019-02-28T13:30:28.512Z,46.50
2019-02-28T13:32:57.967Z,43.60
2019-02-28T13:35:33.466Z,43.90
2019-02-28T13:38:02.816Z,44.80
2019-02-28T13:40:32.401Z,41.73
2019-02-28T13:43:02.096Z,41.93
2019-02-28T13:45:31.838Z,46.40
2019-02-28T13:48:03.382Z,43.60
2019-02-28T13:50:36.351Z,42.20
2019-02-28T13:53:17.234Z,44.47
2019-02-28T13:55:39.028Z,44.57
2019-02-28T13:58:08.379Z,47.63
2019-02-28T14:00:43.895Z,49.50
2019-02-28T14:03:17.111Z,43.93
2019-02-28T14:05:46.706Z,44.00
2019-02-28T14:08:16.142Z,46.50
2019-02-28T14:10:45.454Z,44.70
2019-02-28T14:13:14.818Z,46.80
2019-02-28T14:15:52.352Z,47.90
2019-02-28T14:18:18.807Z,47.40
2019-02-28T14:20:49.197Z,47.90
2019-02-28T14:23:20.685Z,46.23
2019-02-28T14:25:50.120Z,44.10
2019-02-28T14:28:19.901Z,44.70
2019-02-28T14:30:49.258Z,44.77
2019-02-28T14:33:19.381Z,47.70
2019-02-28T14:35:49.680Z,45.00
2019-02-28T14:38:19.379Z,44.03
2019-02-28T14:40:49.532Z,45.97
2019-02-28T14:43:20.701Z,49.47
2019-02-28T14:45:50.151Z,45.53
2019-02-28T14:48:19.536Z,43.87
2019-02-28T14:50:50.734Z,44.83
2019-02-28T14:53:20.275Z,44.03
2019-02-28T14:55:49.634Z,48.30
2019-02-28T14:58:21.225Z,48.23
2019-02-28T15:00:50.609Z,49.30
2019-02-28T15:03:20.204Z,46.50
2019-02-28T15:05:52.397Z,50.67
2019-02-28T15:08:20.914Z,48.27
2019-02-28T15:10:50.592Z,45.47
2019-02-28T15:13:20.184Z,51.10
2019-02-28T15:15:53.113Z,46.87
2019-02-28T15:18:20.936Z,46.13
2019-02-28T15:20:50.538Z,48.27
2019-02-28T15:23:20.392Z,51.53
2019-02-28T15:25:50.774Z,49.43
2019-02-28T15:28:21.096Z,48.27
2019-02-28T15:30:51.028Z,48.63
2019-02-28T15:33:20.730Z,50.30
2019-02-28T15:35:50.499Z,47.97
2019-02-28T15:38:20.133Z,50.50
2019-02-28T15:40:49.477Z,46.97
2019-02-28T15:43:18.915Z,47.20
2019-02-28T15:45:48.225Z,48.27
2019-02-28T15:48:18.011Z,54.30
2019-02-28T15:50:51.289Z,51.17
2019-02-28T15:53:18.457Z,52.37
2019-02-28T15:55:48.213Z,46.13
2019-02-28T15:58:17.919Z,50.90
2019-02-28T16:00:47.254Z,51.97
2019-02-28T16:03:17.502Z,52.80
2019-02-28T16:05:46.969Z,49.97
2019-02-28T16:08:16.668Z,48.37
2019-02-28T16:10:53.402Z,49.90
2019-02-28T16:13:17.419Z,54.17
2019-02-28T16:15:49.871Z,51.77
2019-02-28T16:18:17.920Z,54.37
2019-02-28T16:20:47.691Z,51.17
2019-02-28T16:23:17.006Z,55.23
2019-02-28T16:25:47.080Z,56.10
2019-02-28T16:28:17.493Z,55.30
2019-02-28T16:30:47.100Z,52.53
2019-02-28T16:33:16.829Z,51.10
2019-02-28T16:35:46.917Z,52.80
2019-02-28T16:38:17.591Z,52.37
2019-02-28T16:40:46.951Z,57.17
2019-02-28T16:43:17.316Z,53.57
2019-02-28T16:45:49.243Z,55.90
2019-02-28T16:48:18.579Z,56.43
2019-02-28T16:50:50.632Z,55.03
2019-02-28T16:53:19.534Z,58.50
2019-02-28T16:55:49.217Z,56.83
2019-02-28T16:58:21.767Z,57.50
2019-02-28T17:00:49.956Z,56.17
2019-02-28T17:03:19.271Z,53.20
2019-02-28T17:05:48.635Z,59.83
2019-02-28T17:08:18.691Z,54.63
2019-02-28T17:10:50.059Z,60.13
2019-02-28T17:13:21.357Z,56.13
2019-02-28T17:16:01.456Z,61.07
2019-02-28T17:18:32.049Z,57.47
2019-02-28T17:21:02.082Z,56.47
2019-02-28T17:23:33.629Z,57.13
2019-02-28T17:26:02.494Z,57.50
2019-02-28T17:28:36.718Z,60.40
2019-02-28T17:31:13.805Z,60.20
2019-02-28T17:33:46.915Z,59.60
2019-02-28T17:36:15.472Z,55.57
2019-02-28T17:38:44.860Z,56.43
2019-02-28T17:41:14.668Z,56.57
2019-02-28T17:44:04.749Z,58.53
2019-02-28T17:46:34.378Z,60.40
2019-02-28T17:49:28.358Z,58.97
2019-02-28T17:52:02.608Z,55.00
2019-02-28T17:54:54.243Z,58.97
2019-02-28T17:57:37.105Z,58.00
2019-02-28T18:00:26.526Z,56.50
2019-02-28T18:03:27.736Z,57.07
2019-02-28T18:06:18.640Z,61.53
2019-02-28T18:09:01.707Z,57.07
2019-02-28T18:11:51.146Z,53.50
2019-02-28T18:14:54.335Z,57.30
2019-02-28T18:17:57.408Z,51.97
2019-02-28T18:21:05.775Z,58.87
2019-02-28T18:24:11.271Z,59.13
2019-02-28T18:27:23.306Z,52.93
2019-02-28T18:30:30.965Z,50.53
2019-02-28T18:33:00.725Z,54.93
2019-02-28T18:35:32.600Z,54.73
2019-02-28T18:38:03.162Z,51.17
2019-02-28T18:40:32.196Z,52.27
2019-02-28T18:43:02.106Z,49.27
2019-02-28T18:45:31.782Z,52.33
2019-02-28T18:48:01.118Z,50.17
2019-02-28T18:50:30.812Z,53.80
2019-02-28T18:53:00.141Z,53.63
2019-02-28T18:55:34.951Z,54.77
2019-02-28T18:58:01.506Z,51.73
2019-02-28T19:00:30.869Z,55.77
2019-02-28T19:03:00.585Z,55.57
2019-02-28T19:05:30.287Z,53.07
2019-02-28T19:07:59.987Z,51.43
2019-02-28T19:10:29.700Z,57.67
2019-02-28T19:13:18.798Z,56.37
2019-02-28T19:15:48.587Z,52.10
2019-02-28T19:18:18.284Z,54.23
2019-02-28T19:20:47.988Z,57.93
2019-02-28T19:23:17.597Z,53.87
2019-02-28T19:25:47.196Z,55.67
2019-02-28T19:28:16.905Z,52.70
2019-02-28T19:30:46.614Z,53.60
2019-02-28T19:33:15.980Z,52.70
2019-02-28T19:35:45.307Z,51.40
2019-02-28T19:38:14.640Z,54.17
2019-02-28T19:40:44.338Z,49.93
2019-02-28T19:43:14.272Z,51.83
2019-02-28T19:45:48.587Z,51.20
2019-02-28T19:48:18.374Z,52.37
2019-02-28T19:50:48.081Z,50.00
2019-02-28T19:53:17.502Z,50.90
2019-02-28T19:55:47.002Z,50.53
2019-02-28T19:58:17.017Z,54.87
2019-02-28T20:00:46.715Z,52.50
2019-02-28T20:03:16.418Z,54.03
2019-02-28T20:05:46.130Z,51.77
2019-02-28T20:08:15.478Z,54.87
2019-02-28T20:10:47.045Z,53.90
2019-02-28T20:13:16.383Z,49.97
2019-02-28T20:15:46.093Z,54.57
2019-02-28T20:18:15.805Z,51.10
2019-02-28T20:20:45.236Z,51.30
2019-02-28T20:23:14.611Z,55.00
2019-02-28T20:25:44.316Z,52.47
2019-02-28T20:28:13.907Z,53.47
2019-02-28T20:30:43.529Z,52.50
2019-02-28T20:33:12.878Z,52.20
2019-02-28T20:35:42.546Z,55.20
2019-02-28T20:38:12.236Z,55.13
2019-02-28T20:40:41.936Z,54.33
2019-02-28T20:43:11.272Z,57.10
2019-02-28T20:45:40.944Z,55.10
2019-02-28T20:48:10.858Z,56.50
2019-02-28T20:50:46.390Z,56.17
2019-02-28T20:53:16.018Z,55.37
2019-02-28T20:55:45.836Z,52.43
2019-02-28T20:58:16.140Z,53.33
2019-02-28T21:00:45.890Z,55.23
2019-02-28T21:03:15.477Z,54.87
2019-02-28T21:05:44.830Z,54.47
2019-02-28T21:08:14.153Z,54.00
2019-02-28T21:10:43.465Z,52.17
2019-02-28T21:13:12.811Z,55.27
2019-02-28T21:15:42.483Z,56.33
2019-02-28T21:18:11.789Z,54.00
2019-02-28T21:20:42.407Z,57.17
2019-02-28T21:23:11.823Z,55.23
2019-02-28T21:25:41.256Z,54.13
2019-02-28T21:28:10.923Z,56.87
2019-02-28T21:30:40.624Z,55.90
2019-02-28T21:33:10.019Z,62.90
2019-02-28T21:35:39.387Z,58.57
2019-02-28T21:38:09.044Z,59.17
2019-02-28T21:40:38.784Z,61.17
2019-02-28T21:43:08.530Z,60.90
2019-02-28T21:45:38.162Z,59.97
2019-02-28T21:48:07.528Z,63.60
2019-02-28T21:50:36.953Z,63.40
2019-02-28T21:53:06.367Z,60.50
2019-02-28T21:55:35.844Z,70.53
2019-02-28T21:58:05.485Z,64.13
2019-02-28T22:00:35.098Z,65.10
2019-02-28T22:03:05.918Z,62.03
2019-02-28T22:05:35.682Z,65.43
2019-02-28T22:08:05.082Z,68.30
2019-02-28T22:10:34.901Z,67.87
2019-02-28T22:13:04.360Z,69.10
2019-02-28T22:15:33.958Z,66.70
2019-02-28T22:18:03.575Z,63.70
2019-02-28T22:20:32.917Z,69.93
2019-02-28T22:23:02.261Z,69.73
2019-02-28T22:25:31.727Z,68.20
2019-02-28T22:28:01.372Z,70.07
2019-02-28T22:30:35.300Z,69.90
2019-02-28T22:33:12.154Z,67.87
2019-02-28T22:35:55.431Z,69.60
2019-02-28T22:38:24.766Z,68.70
2019-02-28T22:40:54.269Z,72.87
2019-02-28T22:43:23.916Z,68.97
2019-02-28T22:45:53.610Z,73.07
2019-02-28T22:48:22.932Z,70.63
2019-02-28T22:50:52.244Z,70.87
2019-02-28T22:53:22.249Z,70.17
2019-02-28T22:56:02.451Z,73.83
2019-02-28T22:58:32.174Z,70.50
2019-02-28T23:01:14.745Z,73.23
2019-02-28T23:03:44.330Z,77.30
2019-02-28T23:06:13.872Z,75.67
2019-02-28T23:08:43.358Z,72.13
2019-02-28T23:11:13.437Z,77.87
2019-02-28T23:13:43.147Z,74.97
2019-02-28T23:16:12.470Z,73.50
2019-02-28T23:18:41.880Z,75.37
2019-02-28T23:21:11.535Z,77.73
2019-02-28T23:23:41.243Z,79.63
2019-02-28T23:26:13.338Z,78.83
2019-02-28T23:28:47.519Z,76.47
2019-02-28T23:31:55.732Z,77.47
2019-02-28T23:34:36.844Z,77.60
2019-02-28T23:37:06.317Z,77.57
2019-02-28T23:39:36.142Z,78.60
2019-02-28T23:42:05.880Z,78.30
2019-02-28T23:44:35.251Z,78.97
2019-02-28T23:47:04.556Z,80.47
2019-02-28T23:49:34.256Z,80.43
2019-02-28T23:52:03.588Z,73.57
2019-02-28T23:54:33.321Z,74.23
2019-02-28T23:57:02.636Z,74.07
2019-02-28T23:59:31.989Z,82.67
